Midnight Wolf — HO7969 — position and weather

sailwx.info

Track history (hours):
 
Tides and Currents Weather Stations Pressure Air Temp Water Temp Dewpoint Dewpoint Depression Visibility Wind Speed Wind Dir Waves Ship Positions

Midnight Wolf

Last reported at 2014-Sep-30 02:30 UTC. Time now 2014-Oct-01 16:27 UTC.
Position N 18°08' W 063°32'.

Length 51 m; draft 3 m.

Type: Cargo ship. MMSI: 351880000.

Date/timePositionNaut miles runAvg speedWind from/ knotsBaromVisibWave heightAir tempDewpointWater temp
2014-Sep-30 02:30N 18°08' W 063°32'9 8.8
2014-Sep-30 01:27N 18°07' W 063°22'13 9.3
2014-Sep-30 00:05N 18°05' W 063°09'4 6.8
2014-Sep-29 23:32N 18°05' W 063°05'0 0.0
2014-Sep-29 22:30N 18°05' W 063°05'0 0.0
2014-Sep-29 21:30N 18°05' W 063°05'0 0.0
2014-Sep-29 20:30N 18°05' W 063°05'0 0.0
2014-Sep-29 19:06N 18°05' W 063°05'3 2.8
2014-Sep-29 18:10N 18°05' W 063°08'7 9.0
2014-Sep-29 17:24N 18°06' W 063°15'8 9.1
2014-Sep-29 16:32N 18°07' W 063°23'  
2014-Sep-23 06:34N 18°07' W 063°26'12 9.0
2014-Sep-23 05:15N 18°06' W 063°14'7 9.1
2014-Sep-23 04:32N 18°05' W 063°07'2 2.0
2014-Sep-23 03:33N 18°05' W 063°05'0 0.0
2014-Sep-23 02:30N 18°05' W 063°05'5 2.7
2014-Sep-23 00:30N 18°06' W 063°11'8 8.7
2014-Sep-22 23:33N 18°07' W 063°19'  
Track history (hours):
 
Tides and Currents Weather Stations Pressure Air Temp Water Temp Dewpoint Dewpoint Depression Visibility Wind Speed Wind Dir Waves Ship Positions

Midnight Wolf

Last reported at 2014-Sep-30 02:30 UTC. Time now 2014-Oct-01 16:27 UTC.
Position N 18°08' W 063°32'.

Length 51 m; draft 3 m.

Type: Cargo ship. MMSI: 351880000.

Date/timePositionNaut miles runAvg speedWind from/ knotsBaromVisibWave heightAir tempDewpointWater temp
2014-Sep-30 02:30N 18°08' W 063°32'9 8.8
2014-Sep-30 01:27N 18°07' W 063°22'13 9.3
2014-Sep-30 00:05N 18°05' W 063°09'4 6.8
2014-Sep-29 23:32N 18°05' W 063°05'0 0.0
2014-Sep-29 22:30N 18°05' W 063°05'0 0.0
2014-Sep-29 21:30N 18°05' W 063°05'0 0.0
2014-Sep-29 20:30N 18°05' W 063°05'0 0.0
2014-Sep-29 19:06N 18°05' W 063°05'3 2.8
2014-Sep-29 18:10N 18°05' W 063°08'7 9.0
2014-Sep-29 17:24N 18°06' W 063°15'8 9.1
2014-Sep-29 16:32N 18°07' W 063°23'  
2014-Sep-23 06:34N 18°07' W 063°26'12 9.0
2014-Sep-23 05:15N 18°06' W 063°14'7 9.1
2014-Sep-23 04:32N 18°05' W 063°07'2 2.0
2014-Sep-23 03:33N 18°05' W 063°05'0 0.0
2014-Sep-23 02:30N 18°05' W 063°05'5 2.7
2014-Sep-23 00:30N 18°06' W 063°11'8 8.7
2014-Sep-22 23:33N 18°07' W 063°19'  

Dump ship's entire track history